This is the latest recevied weather packets stored in our database for station/object K0KDS. If no packets are shown the sender has not sent any weather packets the latest 10 day(s).
| Time | Temp. | Humidity | Pressure | Rain* | Wind** | Luminosity | Snow |
|---|---|---|---|---|---|---|---|
| 1777877242 | 13.89° C | 48% | 1003.3 hPa | 0 mm | - | - | - |
| 1777876342 | 13.89° C | 48% | 1003.5 hPa | 0 mm | - | - | - |
| 1777875442 | 13.33° C | 49% | 1003.8 hPa | 0 mm | - | - | - |
| 1777874542 | 13.33° C | 50% | 1004 hPa | 0 mm | - | - | - |
| 1777873642 | 12.22° C | 53% | 1004 hPa | 0 mm | - | - | - |
| 1777872742 | 10.56° C | 59% | 1004 hPa | 0 mm | - | - | - |
| 1777871842 | 10.56° C | 62% | 1004.2 hPa | 0 mm | - | - | - |
| 1777870942 | 11.11° C | 59% | 1004.3 hPa | 0 mm | - | - | - |
| 1777870042 | 11.67° C | 55% | 1004.3 hPa | 0 mm | - | - | - |
| 1777869142 | 12.22° C | 53% | 1004.6 hPa | 0 mm | - | - | - |
| 1777868242 | 12.78° C | 52% | 1004.6 hPa | 0 mm | - | - | - |
| 1777867342 | 14.44° C | 48% | 1004.8 hPa | 0 mm | - | - | - |
| 1777866442 | 15.56° C | 41% | 1005 hPa | 0 mm | - | - | - |
| 1777865542 | 16.67° C | 39% | 1005.3 hPa | 0 mm | - | - | - |
| 1777864642 | 16.67° C | 39% | 1005.5 hPa | 0 mm | - | - | - |
| 1777863742 | 16.67° C | 38% | 1005.6 hPa | 0 mm | - | - | - |
| 1777862842 | 16.11° C | 39% | 1005.5 hPa | 0 mm | - | - | - |
| 1777861942 | 16.67° C | 38% | 1005.4 hPa | 0 mm | - | - | - |
| 1777861042 | 17.22° C | 36% | 1005.4 hPa | 0 mm | - | - | - |
| 1777860142 | 17.22° C | 35% | 1005.3 hPa | 0 mm | - | - | - |
| 1777859242 | 17.78° C | 33% | 1005.3 hPa | 0 mm | - | - | - |
| 1777858342 | 18.89° C | 31% | 1005.2 hPa | 0 mm | - | - | - |
| 1777857442 | 19.44° C | 30% | 1005.2 hPa | 0 mm | - | - | - |
| 1777856542 | 20.56° C | 27% | 1005.2 hPa | 0 mm | - | - | - |
| 1777855642 | 21.67° C | 25% | 1005.2 hPa | 0 mm | - | - | - |
* Rain latest hour (hover to see other rain measurements)
** Current wind speed in m/s (hover to see current wind gust speed)